createdAt,value
2022-11-03T00:01:50.987Z,11.30
2022-11-03T00:04:21.697Z,11.30
2022-11-03T00:06:52.215Z,11.30
2022-11-03T00:09:21.929Z,11.30
2022-11-03T00:11:52.952Z,11.20
2022-11-03T00:14:21.276Z,11.20
2022-11-03T00:16:49.725Z,11.20
2022-11-03T00:19:17.754Z,11.20
2022-11-03T00:21:46.722Z,11.20
2022-11-03T00:24:14.862Z,11.20
2022-11-03T00:26:42.798Z,11.20
2022-11-03T00:29:14.802Z,11.10
2022-11-03T00:31:45.319Z,11.10
2022-11-03T00:34:13.472Z,11.10
2022-11-03T00:36:43.821Z,11.10
2022-11-03T00:39:12.454Z,11.10
2022-11-03T00:41:41.204Z,11.10
2022-11-03T00:44:10.473Z,11.10
2022-11-03T00:46:39.978Z,11.00
2022-11-03T00:49:07.964Z,11.00
2022-11-03T00:51:35.980Z,11.00
2022-11-03T00:54:07.044Z,11.00
2022-11-03T00:56:37.906Z,10.90
2022-11-03T00:59:08.200Z,10.90
2022-11-03T01:01:45.347Z,10.90
2022-11-03T01:04:33.700Z,10.90
2022-11-03T01:07:03.276Z,10.80
2022-11-03T01:09:36.027Z,10.80
2022-11-03T01:12:07.506Z,10.80
2022-11-03T01:14:38.343Z,10.80
2022-11-03T01:17:09.838Z,10.80
2022-11-03T01:19:37.755Z,10.80
2022-11-03T01:22:09.633Z,10.80
2022-11-03T01:24:41.016Z,10.80
2022-11-03T01:27:09.978Z,10.80
2022-11-03T01:29:37.920Z,10.80
2022-11-03T01:32:08.271Z,10.80
2022-11-03T01:34:36.692Z,10.80
2022-11-03T01:37:05.787Z,10.80
2022-11-03T01:39:33.713Z,10.80
2022-11-03T01:42:01.748Z,10.80
2022-11-03T01:44:33.765Z,10.80
2022-11-03T01:47:23.611Z,10.80
2022-11-03T01:49:59.228Z,10.80
2022-11-03T01:52:36.488Z,10.80
2022-11-03T01:55:11.477Z,10.80
2022-11-03T01:57:45.899Z,10.80
2022-11-03T02:00:15.396Z,10.80
2022-11-03T02:02:45.609Z,10.80
2022-11-03T02:05:16.470Z,10.80
2022-11-03T02:07:50.880Z,10.80
2022-11-03T02:10:19.575Z,10.90
2022-11-03T02:12:49.055Z,10.80
2022-11-03T02:15:21.485Z,10.90
2022-11-03T02:17:54.905Z,10.90
2022-11-03T02:20:27.297Z,10.90
2022-11-03T02:23:21.750Z,10.90
2022-11-03T02:25:54.095Z,10.90
2022-11-03T02:28:25.333Z,10.90
2022-11-03T02:31:04.783Z,10.90
2022-11-03T02:33:47.576Z,10.90
2022-11-03T02:36:25.232Z,10.90
2022-11-03T02:38:59.358Z,11.00
2022-11-03T02:41:31.506Z,11.00
2022-11-03T02:44:02.146Z,11.00
2022-11-03T02:46:33.671Z,11.00
2022-11-03T02:49:01.595Z,11.00
2022-11-03T02:51:29.499Z,11.00
2022-11-03T02:54:08.747Z,11.00
2022-11-03T02:56:46.060Z,11.00
2022-11-03T02:59:18.826Z,11.00
2022-11-03T03:01:55.333Z,11.00
2022-11-03T03:04:33.889Z,11.00
2022-11-03T03:07:06.521Z,11.00
2022-11-03T03:09:42.415Z,11.00
2022-11-03T03:12:14.786Z,11.10
2022-11-03T03:14:46.713Z,11.00
2022-11-03T03:17:24.066Z,11.00
2022-11-03T03:20:00.148Z,11.10
2022-11-03T03:22:35.195Z,11.00
2022-11-03T03:25:12.553Z,11.10
2022-11-03T03:27:46.942Z,11.10
2022-11-03T03:30:15.624Z,11.00
2022-11-03T03:32:49.106Z,11.00
2022-11-03T03:35:23.418Z,11.00
2022-11-03T03:37:57.239Z,11.10
2022-11-03T03:40:32.894Z,11.00
2022-11-03T03:43:05.452Z,11.10
2022-11-03T03:45:35.520Z,11.00
2022-11-03T03:48:06.561Z,11.10
2022-11-03T03:50:39.462Z,11.00
2022-11-03T03:53:13.002Z,11.10
2022-11-03T03:55:45.167Z,11.10
2022-11-03T03:58:16.819Z,11.10
2022-11-03T04:00:45.149Z,11.10
2022-11-03T04:03:18.796Z,11.10
2022-11-03T04:05:47.531Z,11.10
2022-11-03T04:08:17.780Z,11.10
2022-11-03T04:11:06.456Z,11.10
2022-11-03T04:13:53.338Z,11.10
2022-11-03T04:16:38.606Z,11.10
2022-11-03T04:19:24.223Z,11.10
2022-11-03T04:22:09.656Z,11.10
2022-11-03T04:24:37.577Z,11.10
2022-11-03T04:27:30.453Z,11.10
2022-11-03T04:30:15.486Z,11.10
2022-11-03T04:32:44.960Z,11.10
2022-11-03T04:35:18.721Z,11.10
2022-11-03T04:37:52.230Z,11.10
2022-11-03T04:40:20.322Z,11.10
2022-11-03T04:42:48.473Z,11.10
2022-11-03T04:45:25.191Z,11.10
2022-11-03T04:47:54.049Z,11.10
2022-11-03T04:50:24.767Z,11.10
2022-11-03T04:52:57.933Z,11.20
2022-11-03T04:55:27.885Z,11.20
2022-11-03T04:58:01.116Z,11.20
2022-11-03T05:00:30.393Z,11.20
2022-11-03T05:02:58.330Z,11.20
2022-11-03T05:05:27.666Z,11.20
2022-11-03T05:07:59.278Z,11.20
2022-11-03T05:10:30.322Z,11.20
2022-11-03T05:13:01.177Z,11.20
2022-11-03T05:15:37.106Z,11.20
2022-11-03T05:18:20.074Z,11.20
2022-11-03T05:20:54.278Z,11.20
2022-11-03T05:23:23.937Z,11.20
2022-11-03T05:25:55.313Z,11.20
2022-11-03T05:28:27.488Z,11.10
2022-11-03T05:30:57.367Z,11.20
2022-11-03T05:33:30.636Z,11.10
2022-11-03T05:36:04.202Z,11.20
2022-11-03T05:38:34.308Z,11.20
2022-11-03T05:41:02.935Z,11.20
2022-11-03T05:43:30.879Z,11.20
2022-11-03T05:46:04.185Z,11.20
2022-11-03T05:48:36.087Z,11.20
2022-11-03T05:51:17.671Z,11.20
2022-11-03T05:53:46.272Z,11.20
2022-11-03T05:56:20.634Z,11.20
2022-11-03T05:58:51.383Z,11.20
2022-11-03T06:01:29.621Z,11.20
2022-11-03T06:04:00.380Z,11.20
2022-11-03T06:06:35.845Z,11.20
2022-11-03T06:09:13.183Z,11.20
2022-11-03T06:11:41.613Z,11.30
2022-11-03T06:14:21.248Z,11.30
2022-11-03T06:16:56.591Z,11.30
2022-11-03T06:19:29.686Z,11.30
2022-11-03T06:22:02.785Z,11.30
2022-11-03T06:24:34.757Z,11.30
2022-11-03T06:27:02.737Z,11.30
2022-11-03T06:29:34.251Z,11.30
2022-11-03T06:32:03.627Z,11.30
2022-11-03T06:34:40.311Z,11.30
2022-11-03T06:37:21.136Z,11.30
2022-11-03T06:39:50.341Z,11.40
2022-11-03T06:42:23.851Z,11.40
2022-11-03T06:44:53.552Z,11.40
2022-11-03T06:47:25.941Z,11.40
2022-11-03T06:49:57.534Z,11.40
2022-11-03T06:52:32.347Z,11.40
2022-11-03T06:55:26.626Z,11.50
2022-11-03T06:58:00.009Z,11.50
2022-11-03T07:00:35.141Z,11.50
2022-11-03T07:03:11.891Z,11.50
2022-11-03T07:05:41.602Z,11.50
2022-11-03T07:08:26.043Z,11.50
2022-11-03T07:11:03.492Z,11.60
2022-11-03T07:13:34.413Z,11.50
2022-11-03T07:16:02.703Z,11.60
2022-11-03T07:18:38.901Z,11.60
2022-11-03T07:21:31.952Z,11.60
2022-11-03T07:24:03.945Z,11.60
2022-11-03T07:26:34.712Z,11.60
2022-11-03T07:29:03.369Z,11.60
2022-11-03T07:31:33.195Z,11.60
2022-11-03T07:34:02.718Z,11.70
2022-11-03T07:36:32.967Z,11.70
2022-11-03T07:39:03.721Z,11.70
2022-11-03T07:41:34.985Z,11.70
2022-11-03T07:44:03.575Z,11.70
2022-11-03T07:46:31.777Z,11.70
2022-11-03T07:49:02.739Z,11.80
2022-11-03T07:51:33.997Z,11.80
2022-11-03T07:54:11.116Z,11.80
2022-11-03T07:56:44.089Z,11.80
2022-11-03T07:59:19.506Z,11.80
2022-11-03T08:01:52.268Z,11.80
2022-11-03T08:04:25.553Z,11.80
2022-11-03T08:06:53.512Z,11.90
2022-11-03T08:09:22.102Z,11.90
2022-11-03T08:11:50.957Z,11.90
2022-11-03T08:14:19.005Z,11.90
2022-11-03T08:16:46.993Z,11.90
2022-11-03T08:19:14.903Z,11.90
2022-11-03T08:21:44.218Z,12.00
2022-11-03T08:24:12.157Z,12.00
2022-11-03T08:26:40.086Z,12.00
2022-11-03T08:29:08.018Z,12.10
2022-11-03T08:31:35.923Z,12.10
2022-11-03T08:34:03.883Z,12.20
2022-11-03T08:36:31.808Z,12.20
2022-11-03T08:39:01.065Z,12.30
2022-11-03T08:41:28.963Z,12.30
2022-11-03T08:43:56.978Z,12.40
2022-11-03T08:46:24.894Z,12.40
2022-11-03T08:48:53.506Z,12.40
2022-11-03T08:51:21.429Z,12.50
2022-11-03T08:53:50.576Z,12.50
2022-11-03T08:56:22.330Z,12.50
2022-11-03T08:58:50.926Z,12.60
2022-11-03T09:01:18.923Z,12.60
2022-11-03T09:03:46.951Z,12.60
2022-11-03T09:06:14.865Z,12.70
2022-11-03T09:11:39.659Z,12.70
2022-11-03T09:14:07.776Z,12.80
2022-11-03T09:16:35.935Z,12.80
2022-11-03T09:19:04.182Z,12.80
2022-11-03T09:21:32.277Z,12.90
2022-11-03T09:24:00.336Z,12.90
2022-11-03T09:26:28.463Z,12.90
2022-11-03T09:28:58.151Z,13.00
2022-11-03T09:31:28.468Z,13.00
2022-11-03T09:33:57.116Z,13.10
2022-11-03T09:36:25.316Z,13.10
2022-11-03T09:38:53.461Z,13.10
2022-11-03T09:41:26.945Z,13.10
2022-11-03T09:44:05.001Z,13.20
2022-11-03T09:46:35.703Z,13.20
2022-11-03T09:49:06.121Z,13.20
2022-11-03T09:51:37.233Z,13.30
2022-11-03T09:54:06.824Z,13.30
2022-11-03T09:56:38.020Z,13.30
2022-11-03T09:59:17.127Z,13.40
2022-11-03T10:01:48.713Z,13.40
2022-11-03T10:04:19.775Z,13.50
2022-11-03T10:06:47.860Z,13.50
2022-11-03T10:09:20.578Z,13.60
2022-11-03T10:11:49.343Z,13.60
2022-11-03T10:14:20.064Z,13.70
2022-11-03T10:16:57.114Z,13.80
2022-11-03T10:19:25.691Z,13.80
2022-11-03T10:21:54.195Z,13.90
2022-11-03T10:24:22.268Z,13.90
2022-11-03T10:26:54.639Z,13.90
2022-11-03T10:29:26.501Z,14.00
2022-11-03T10:31:57.029Z,14.10
2022-11-03T10:34:32.938Z,14.10
2022-11-03T10:37:20.830Z,14.20
2022-11-03T10:39:50.532Z,14.30
2022-11-03T10:42:22.082Z,14.40
2022-11-03T10:44:54.590Z,14.40
2022-11-03T10:47:28.053Z,14.50
2022-11-03T10:49:56.173Z,14.50
2022-11-03T10:52:27.017Z,14.60
2022-11-03T10:54:57.936Z,14.60
2022-11-03T10:57:28.521Z,14.60
2022-11-03T10:59:58.244Z,14.60
2022-11-03T11:02:32.872Z,14.60
2022-11-03T11:05:23.173Z,14.60
2022-11-03T11:07:53.485Z,14.60
2022-11-03T11:10:25.395Z,14.60
2022-11-03T11:13:27.681Z,14.60
2022-11-03T11:16:39.354Z,14.60
2022-11-03T11:19:16.358Z,14.60
2022-11-03T11:22:13.885Z,14.60
2022-11-03T11:25:04.077Z,14.60
2022-11-03T11:28:21.273Z,14.60
2022-11-03T11:31:04.193Z,14.60
2022-11-03T11:37:57.765Z,14.60
2022-11-03T11:43:53.568Z,14.60
2022-11-03T11:46:42.236Z,14.70
2022-11-03T11:49:19.153Z,14.70
2022-11-03T11:51:55.386Z,14.70
2022-11-03T11:57:58.892Z,14.70
2022-11-03T12:00:58.859Z,14.70
2022-11-03T12:03:58.910Z,14.70
2022-11-03T12:13:52.980Z,14.80
2022-11-03T12:16:37.904Z,14.90
2022-11-03T12:19:48.858Z,14.90
2022-11-03T12:22:58.329Z,15.00
2022-11-03T12:25:37.005Z,15.10
2022-11-03T12:28:06.645Z,15.20
2022-11-03T12:30:39.557Z,15.20
2022-11-03T12:33:08.794Z,15.30
2022-11-03T12:35:38.725Z,15.30
2022-11-03T12:38:06.793Z,15.40
2022-11-03T12:40:34.887Z,15.40
2022-11-03T12:43:02.939Z,15.50
2022-11-03T12:45:31.353Z,15.50
2022-11-03T12:48:00.241Z,15.50
2022-11-03T12:50:52.068Z,15.50
2022-11-03T12:56:45.682Z,15.60
2022-11-03T12:59:23.755Z,15.60
2022-11-03T13:02:19.913Z,15.60
2022-11-03T13:05:15.386Z,15.60
2022-11-03T13:07:59.013Z,15.60
2022-11-03T13:10:55.990Z,15.70
2022-11-03T13:14:14.247Z,15.70
2022-11-03T13:17:07.786Z,15.70
2022-11-03T13:20:26.092Z,15.70
2022-11-03T13:23:06.794Z,15.70
2022-11-03T13:25:35.347Z,15.70
2022-11-03T13:28:07.595Z,15.70
2022-11-03T13:30:43.457Z,15.70
2022-11-03T13:33:43.872Z,15.70
2022-11-03T13:36:12.031Z,15.70
2022-11-03T13:38:41.437Z,15.70
2022-11-03T13:41:09.541Z,15.70
2022-11-03T13:43:37.829Z,15.70
2022-11-03T13:46:06.126Z,15.80
2022-11-03T13:51:22.323Z,15.70
2022-11-03T13:59:28.580Z,15.70
2022-11-03T14:04:45.341Z,15.70
2022-11-03T14:07:13.392Z,15.70
2022-11-03T14:09:42.860Z,15.70
2022-11-03T14:12:37.048Z,15.70
2022-11-03T14:15:09.606Z,15.70
2022-11-03T14:17:38.338Z,15.70
2022-11-03T14:20:09.619Z,15.70
2022-11-03T14:22:37.638Z,15.60
2022-11-03T14:25:08.675Z,15.60
2022-11-03T14:27:36.846Z,15.60
2022-11-03T14:30:06.493Z,15.60
2022-11-03T14:32:34.510Z,15.60
2022-11-03T14:35:02.661Z,15.60
2022-11-03T14:37:30.982Z,15.50
2022-11-03T14:39:59.008Z,15.50
2022-11-03T14:42:27.440Z,15.50
2022-11-03T14:44:55.591Z,15.50
2022-11-03T14:47:23.590Z,15.50
2022-11-03T14:49:51.677Z,15.50
2022-11-03T14:52:19.660Z,15.50
2022-11-03T14:54:48.259Z,15.50
2022-11-03T14:57:16.264Z,15.50
2022-11-03T14:59:48.028Z,15.40
2022-11-03T15:02:20.294Z,15.40
2022-11-03T15:04:48.340Z,15.40
2022-11-03T15:07:16.325Z,15.40
2022-11-03T15:09:44.339Z,15.30
2022-11-03T15:12:12.373Z,15.30
2022-11-03T15:14:40.502Z,15.30
2022-11-03T15:17:09.879Z,15.20
2022-11-03T15:19:37.894Z,15.20
2022-11-03T15:22:05.816Z,15.30
2022-11-03T15:27:21.785Z,15.20
2022-11-03T15:29:49.764Z,15.20
2022-11-03T15:32:19.081Z,15.20
2022-11-03T15:34:47.188Z,15.20
2022-11-03T15:37:15.606Z,15.20
2022-11-03T15:39:43.571Z,15.20
2022-11-03T15:42:11.533Z,15.10
2022-11-03T15:44:39.527Z,15.10
2022-11-03T15:47:07.937Z,15.10
2022-11-03T15:49:37.552Z,15.00
2022-11-03T15:52:06.446Z,15.00
2022-11-03T15:54:38.461Z,14.90
2022-11-03T15:57:09.529Z,14.90
2022-11-03T15:59:38.377Z,14.90
2022-11-03T16:02:14.234Z,14.80
2022-11-03T16:04:57.158Z,14.80
2022-11-03T16:07:25.276Z,14.70
2022-11-03T16:09:53.262Z,14.70
2022-11-03T16:12:23.435Z,14.70
2022-11-03T16:14:51.679Z,14.60
2022-11-03T16:17:22.198Z,14.60
2022-11-03T16:19:50.922Z,14.60
2022-11-03T16:22:20.265Z,14.50
2022-11-03T16:24:48.594Z,14.50
2022-11-03T16:27:16.561Z,14.40
2022-11-03T16:29:44.554Z,14.40
2022-11-03T16:32:12.550Z,14.40
2022-11-03T16:34:40.570Z,14.30
2022-11-03T16:37:08.622Z,14.30
2022-11-03T16:39:39.077Z,14.30
2022-11-03T16:42:07.424Z,14.20
2022-11-03T16:44:35.453Z,14.20
2022-11-03T16:47:03.421Z,14.10
2022-11-03T16:49:31.418Z,14.10
2022-11-03T16:51:59.376Z,14.10
2022-11-03T16:54:27.425Z,14.00
2022-11-03T16:56:56.764Z,14.00
2022-11-03T16:59:26.314Z,13.90
2022-11-03T17:01:55.658Z,13.90
2022-11-03T17:04:23.811Z,13.90
2022-11-03T17:06:52.042Z,13.80
2022-11-03T17:09:20.696Z,13.80
2022-11-03T17:11:48.726Z,13.70
2022-11-03T17:14:18.061Z,13.70
2022-11-03T17:16:48.382Z,13.70
2022-11-03T17:19:17.037Z,13.60
2022-11-03T17:21:51.434Z,13.60
2022-11-03T17:24:20.196Z,13.60
2022-11-03T17:26:56.448Z,13.50
2022-11-03T17:29:33.805Z,13.50
2022-11-03T17:32:03.783Z,13.50
2022-11-03T17:34:32.613Z,13.40
2022-11-03T17:37:00.809Z,13.40
2022-11-03T17:39:34.079Z,13.30
2022-11-03T17:42:16.633Z,13.20
2022-11-03T17:44:48.065Z,13.20
2022-11-03T17:47:17.252Z,13.20
2022-11-03T17:49:45.875Z,13.10
2022-11-03T17:52:23.488Z,13.10
2022-11-03T17:54:58.041Z,13.10
2022-11-03T17:57:27.843Z,13.00
2022-11-03T18:00:00.428Z,13.00
2022-11-03T18:02:32.722Z,13.00
2022-11-03T18:05:21.307Z,13.00
2022-11-03T18:07:50.537Z,12.90
2022-11-03T18:10:18.637Z,12.90
2022-11-03T18:13:07.257Z,12.90
2022-11-03T18:15:39.068Z,12.90
2022-11-03T18:18:15.439Z,12.90
2022-11-03T18:20:53.080Z,12.90
2022-11-03T18:23:24.852Z,12.90
2022-11-03T18:25:54.380Z,12.90
2022-11-03T18:28:22.663Z,12.90
2022-11-03T18:30:56.060Z,12.80
2022-11-03T18:33:27.670Z,12.80
2022-11-03T18:35:56.242Z,12.80
2022-11-03T18:38:26.625Z,12.80
2022-11-03T18:40:55.045Z,12.80
2022-11-03T18:43:24.944Z,12.80
2022-11-03T18:45:54.331Z,12.80
2022-11-03T18:48:22.528Z,12.80
2022-11-03T18:50:53.637Z,12.80
2022-11-03T18:53:24.589Z,12.80
2022-11-03T18:55:54.787Z,12.70
2022-11-03T18:58:26.041Z,12.70
2022-11-03T19:00:55.667Z,12.70
2022-11-03T19:03:25.076Z,12.70
2022-11-03T19:05:54.512Z,12.70
2022-11-03T19:08:27.639Z,12.70
2022-11-03T19:10:56.908Z,12.70
2022-11-03T19:13:30.311Z,12.70
2022-11-03T19:16:02.591Z,12.70
2022-11-03T19:18:36.903Z,12.70
2022-11-03T19:21:12.745Z,12.70
2022-11-03T19:23:41.745Z,12.70
2022-11-03T19:26:20.929Z,12.70
2022-11-03T19:28:53.817Z,12.70
2022-11-03T19:31:31.855Z,12.70
2022-11-03T19:34:01.130Z,12.70
2022-11-03T19:36:31.256Z,12.70
2022-11-03T19:39:00.142Z,12.70
2022-11-03T19:41:45.801Z,12.70
2022-11-03T19:44:14.888Z,12.70
2022-11-03T19:46:44.537Z,12.60
2022-11-03T19:49:15.308Z,12.60
2022-11-03T19:51:43.717Z,12.60
2022-11-03T19:54:18.577Z,12.60
2022-11-03T19:56:47.412Z,12.60
2022-11-03T19:59:18.564Z,12.60
2022-11-03T20:01:49.578Z,12.60
2022-11-03T20:04:17.872Z,12.60
2022-11-03T20:06:46.136Z,12.60
2022-11-03T20:09:18.377Z,12.60
2022-11-03T20:11:46.633Z,12.60
2022-11-03T20:14:22.057Z,12.60
2022-11-03T20:16:51.446Z,12.60
2022-11-03T20:19:19.485Z,12.60
2022-11-03T20:21:47.626Z,12.60
2022-11-03T20:24:18.714Z,12.60
2022-11-03T20:26:47.077Z,12.60
2022-11-03T20:29:16.876Z,12.60
2022-11-03T20:31:46.062Z,12.60
2022-11-03T20:34:16.569Z,12.60
2022-11-03T20:36:45.136Z,12.60
2022-11-03T20:39:17.665Z,12.60
2022-11-03T20:41:49.173Z,12.60
2022-11-03T20:44:17.494Z,12.60
2022-11-03T20:46:45.638Z,12.50
2022-11-03T20:49:15.079Z,12.50
2022-11-03T20:51:46.497Z,12.50
2022-11-03T20:54:18.484Z,12.50
2022-11-03T20:56:47.112Z,12.50
2022-11-03T20:59:18.234Z,12.50
2022-11-03T21:01:46.689Z,12.50
2022-11-03T21:04:35.761Z,12.50
2022-11-03T21:07:05.199Z,12.50
2022-11-03T21:09:33.301Z,12.40
2022-11-03T21:12:01.352Z,12.40
2022-11-03T21:14:31.322Z,12.40
2022-11-03T21:17:17.143Z,12.40
2022-11-03T21:20:07.925Z,12.40
2022-11-03T21:22:55.128Z,12.40
2022-11-03T21:25:25.348Z,12.40
2022-11-03T21:27:54.641Z,12.40
2022-11-03T21:30:24.101Z,12.40
2022-11-03T21:32:52.276Z,12.40
2022-11-03T21:35:23.164Z,12.30
2022-11-03T21:37:51.186Z,12.30
2022-11-03T21:40:19.340Z,12.30
2022-11-03T21:43:05.071Z,12.30
2022-11-03T21:45:33.557Z,12.30
2022-11-03T21:48:22.071Z,12.30
2022-11-03T21:50:52.046Z,12.30
2022-11-03T21:53:20.091Z,12.30
2022-11-03T21:55:49.444Z,12.40
2022-11-03T21:58:17.636Z,12.40
2022-11-03T22:00:46.998Z,12.40
2022-11-03T22:03:15.509Z,12.40
2022-11-03T22:05:43.623Z,12.40
2022-11-03T22:08:13.053Z,12.40
2022-11-03T22:10:41.512Z,12.40
2022-11-03T22:13:10.483Z,12.50
2022-11-03T22:15:56.740Z,12.50
2022-11-03T22:18:25.010Z,12.50
2022-11-03T22:21:10.619Z,12.50
2022-11-03T22:24:09.001Z,12.50
2022-11-03T22:26:54.585Z,12.50
2022-11-03T22:29:40.177Z,12.50
2022-11-03T22:32:15.323Z,12.60
2022-11-03T22:35:01.082Z,12.60
2022-11-03T22:40:15.066Z,12.60
2022-11-03T22:43:00.993Z,12.60
2022-11-03T22:45:46.893Z,12.60
2022-11-03T22:48:14.949Z,12.60
2022-11-03T22:50:42.937Z,12.60
2022-11-03T22:53:28.606Z,12.50
2022-11-03T22:56:01.697Z,12.50
2022-11-03T22:58:30.868Z,12.50
2022-11-03T23:01:03.493Z,12.50
2022-11-03T23:03:32.889Z,12.50
2022-11-03T23:06:03.262Z,12.50
2022-11-03T23:08:32.985Z,12.50
2022-11-03T23:11:15.890Z,12.50
2022-11-03T23:13:45.316Z,12.50
2022-11-03T23:16:16.363Z,12.50
2022-11-03T23:19:02.599Z,12.50
2022-11-03T23:21:33.828Z,12.60
2022-11-03T23:24:20.199Z,12.60
2022-11-03T23:26:50.099Z,12.60
2022-11-03T23:29:18.440Z,12.60
2022-11-03T23:31:47.294Z,12.60
2022-11-03T23:34:15.945Z,12.60
2022-11-03T23:36:44.033Z,12.60
2022-11-03T23:39:14.929Z,12.60
2022-11-03T23:41:44.557Z,12.60
2022-11-03T23:44:15.996Z,12.60
2022-11-03T23:47:03.258Z,12.60
2022-11-03T23:49:31.500Z,12.70
2022-11-03T23:51:59.527Z,12.70
2022-11-03T23:54:27.621Z,12.70
2022-11-03T23:57:13.589Z,12.70
2022-11-03T23:59:42.897Z,12.70
